createdAt,value
2018-08-31T00:00:36.429Z,16.17
2018-08-31T00:03:05.239Z,15.67
2018-08-31T00:05:50.472Z,15.80
2018-08-31T00:08:32.066Z,18.57
2018-08-31T00:11:12.095Z,17.10
2018-08-31T00:13:41.179Z,16.80
2018-08-31T00:16:09.921Z,18.27
2018-08-31T00:18:38.682Z,16.33
2018-08-31T00:21:08.277Z,19.47
2018-08-31T00:23:48.034Z,20.80
2018-08-31T00:26:27.865Z,17.63
2018-08-31T00:29:11.927Z,17.20
2018-08-31T00:34:13.154Z,21.70
2018-08-31T00:37:06.594Z,18.90
2018-08-31T00:39:50.190Z,17.43
2018-08-31T00:44:36.638Z,17.00
2018-08-31T00:47:05.544Z,18.10
2018-08-31T00:49:34.555Z,19.07
2018-08-31T00:52:03.298Z,17.50
2018-08-31T00:54:32.705Z,19.83
2018-08-31T00:57:01.702Z,17.40
2018-08-31T00:59:30.607Z,19.60
2018-08-31T01:01:59.502Z,20.60
2018-08-31T01:04:28.572Z,19.33
2018-08-31T01:06:57.660Z,20.20
2018-08-31T01:09:26.501Z,15.83
2018-08-31T01:11:55.284Z,18.10
2018-08-31T01:14:24.133Z,19.10
2018-08-31T01:16:52.914Z,16.17
2018-08-31T01:19:21.795Z,22.03
2018-08-31T01:21:50.635Z,19.80
2018-08-31T01:24:20.124Z,22.13
2018-08-31T01:26:49.101Z,19.43
2018-08-31T01:29:18.990Z,23.43
2018-08-31T01:31:47.883Z,16.80
2018-08-31T01:34:16.744Z,20.67
2018-08-31T01:36:45.649Z,20.70
2018-08-31T01:39:14.800Z,17.83
2018-08-31T01:41:44.255Z,18.57
2018-08-31T01:44:13.010Z,16.57
2018-08-31T01:46:41.977Z,19.40
2018-08-31T01:49:10.959Z,20.93
2018-08-31T01:51:39.969Z,19.03
2018-08-31T01:54:09.097Z,21.07
2018-08-31T01:56:37.885Z,18.80
2018-08-31T01:59:07.391Z,19.90
2018-08-31T02:01:36.267Z,21.37
2018-08-31T02:04:05.230Z,19.50
2018-08-31T02:06:34.885Z,19.07
2018-08-31T02:09:09.616Z,19.00
2018-08-31T02:11:38.379Z,19.53
2018-08-31T02:14:07.460Z,21.70
2018-08-31T02:16:36.214Z,20.97
2018-08-31T02:25:03.146Z,21.73
2018-08-31T02:27:32.063Z,20.70
2018-08-31T02:30:00.843Z,22.10
2018-08-31T02:32:30.270Z,20.00
2018-08-31T02:34:59.104Z,23.37
2018-08-31T02:37:28.007Z,17.60
2018-08-31T02:39:56.846Z,22.57
2018-08-31T02:42:26.237Z,21.33
2018-08-31T02:44:55.103Z,25.10
2018-08-31T02:47:23.868Z,21.47
2018-08-31T02:49:52.828Z,24.67
2018-08-31T02:52:21.702Z,25.40
2018-08-31T02:54:50.879Z,22.13
2018-08-31T02:57:19.703Z,23.17
2018-08-31T02:59:48.598Z,23.70
2018-08-31T03:02:17.608Z,23.10
2018-08-31T03:04:46.508Z,24.03
2018-08-31T03:07:15.322Z,20.03
2018-08-31T03:09:44.297Z,21.97
2018-08-31T03:12:13.046Z,19.37
2018-08-31T03:14:41.873Z,17.43
2018-08-31T03:17:10.742Z,19.03
2018-08-31T03:19:40.164Z,19.07
2018-08-31T03:22:09.226Z,18.17
2018-08-31T03:24:38.088Z,21.83
2018-08-31T03:27:06.846Z,18.73
2018-08-31T03:29:35.811Z,20.27
2018-08-31T03:32:05.636Z,17.17
2018-08-31T03:34:34.713Z,17.50
2018-08-31T03:37:03.571Z,17.53
2018-08-31T03:39:32.499Z,16.10
2018-08-31T03:42:01.534Z,16.97
2018-08-31T03:44:30.360Z,20.43
2018-08-31T03:46:59.229Z,22.20
2018-08-31T03:49:28.160Z,20.97
2018-08-31T03:51:57.007Z,18.90
2018-08-31T03:54:26.412Z,15.60
2018-08-31T03:56:55.252Z,21.20
2018-08-31T03:59:24.142Z,18.30
2018-08-31T04:01:54.533Z,19.57
2018-08-31T04:04:23.492Z,20.70
2018-08-31T04:06:52.371Z,22.17
2018-08-31T04:09:21.278Z,16.60
2018-08-31T04:11:50.114Z,20.20
2018-08-31T04:14:18.895Z,20.37
2018-08-31T04:16:47.758Z,18.87
2018-08-31T04:19:18.277Z,17.77
2018-08-31T04:21:47.284Z,19.83
2018-08-31T04:24:46.903Z,21.70
2018-08-31T04:27:15.803Z,20.77
2018-08-31T04:30:03.896Z,22.00
2018-08-31T04:32:32.671Z,17.53
2018-08-31T04:35:02.477Z,20.17
2018-08-31T04:37:31.346Z,25.57
2018-08-31T04:40:00.275Z,21.00
2018-08-31T04:42:29.201Z,20.87
2018-08-31T04:44:58.245Z,25.40
2018-08-31T04:47:27.090Z,19.10
2018-08-31T04:49:56.043Z,21.93
2018-08-31T04:52:24.958Z,21.73
2018-08-31T04:54:53.752Z,22.93
2018-08-31T04:57:23.362Z,24.90
2018-08-31T04:59:52.794Z,23.80
2018-08-31T05:02:21.571Z,21.33
2018-08-31T05:04:50.841Z,20.60
2018-08-31T05:07:20.306Z,20.50
2018-08-31T05:09:49.115Z,21.63
2018-08-31T05:12:17.879Z,22.53
2018-08-31T05:14:46.705Z,23.83
2018-08-31T05:17:15.761Z,25.00
2018-08-31T05:19:45.242Z,21.07
2018-08-31T05:22:14.118Z,21.97
2018-08-31T05:24:42.995Z,25.03
2018-08-31T05:27:11.974Z,21.53
2018-08-31T05:29:41.592Z,22.53
2018-08-31T05:32:11.100Z,20.13
2018-08-31T05:34:39.939Z,23.73
2018-08-31T05:37:08.798Z,23.20
2018-08-31T05:39:37.775Z,26.27
2018-08-31T05:42:06.755Z,24.70
2018-08-31T05:44:36.072Z,27.40
2018-08-31T05:47:04.998Z,21.30
2018-08-31T05:49:33.896Z,24.47
2018-08-31T05:52:02.678Z,23.87
2018-08-31T05:54:32.468Z,22.20
2018-08-31T05:57:01.470Z,22.30
2018-08-31T05:59:30.267Z,24.03
2018-08-31T06:01:59.167Z,22.60
2018-08-31T06:04:28.005Z,21.33
2018-08-31T06:06:56.918Z,25.73
2018-08-31T06:09:25.750Z,25.00
2018-08-31T06:11:54.637Z,22.77
2018-08-31T06:14:23.465Z,23.30
2018-08-31T06:16:52.292Z,23.67
2018-08-31T06:19:21.127Z,25.30
2018-08-31T06:21:50.103Z,23.10
2018-08-31T06:24:18.859Z,22.30
2018-08-31T06:26:47.813Z,20.27
2018-08-31T06:29:16.715Z,25.57
2018-08-31T06:31:45.594Z,23.17
2018-08-31T06:34:15.080Z,21.13
2018-08-31T06:36:43.938Z,20.87
2018-08-31T06:39:12.789Z,21.70
2018-08-31T06:41:42.876Z,27.17
2018-08-31T06:44:11.762Z,21.70
2018-08-31T06:46:40.743Z,22.37
2018-08-31T06:49:10.328Z,22.67
2018-08-31T06:51:39.142Z,19.20
2018-08-31T06:54:08.002Z,23.70
2018-08-31T06:56:36.907Z,23.43
2018-08-31T06:59:06.516Z,22.93
2018-08-31T07:01:35.394Z,22.67
2018-08-31T07:04:04.235Z,19.10
2018-08-31T07:06:33.058Z,21.40
2018-08-31T07:09:01.937Z,21.43
2018-08-31T07:11:30.879Z,20.00
2018-08-31T07:13:59.709Z,21.07
2018-08-31T07:16:28.506Z,20.17
2018-08-31T07:18:57.362Z,21.47
2018-08-31T07:21:26.194Z,22.50
2018-08-31T07:23:55.396Z,19.23
2018-08-31T07:26:24.426Z,21.33
2018-08-31T07:28:53.255Z,25.43
2018-08-31T07:31:22.247Z,24.13
2018-08-31T07:33:51.587Z,21.40
2018-08-31T07:36:21.088Z,24.40
2018-08-31T07:38:49.826Z,21.53
2018-08-31T07:41:18.841Z,16.87
2018-08-31T07:43:47.552Z,17.97
2018-08-31T07:46:16.459Z,22.30
2018-08-31T07:48:45.349Z,19.40
2018-08-31T07:51:14.243Z,18.00
2018-08-31T07:53:43.101Z,16.90
2018-08-31T07:56:12.470Z,18.50
2018-08-31T07:58:41.451Z,17.90
2018-08-31T08:01:10.335Z,18.13
2018-08-31T08:03:39.167Z,19.63
2018-08-31T08:06:08.647Z,18.90
2018-08-31T08:08:37.548Z,19.10
2018-08-31T08:11:06.507Z,16.97
2018-08-31T08:13:35.294Z,21.43
2018-08-31T08:16:04.357Z,19.77
2018-08-31T08:18:33.394Z,20.03
2018-08-31T08:21:02.351Z,21.93
2018-08-31T08:23:31.135Z,19.77
2018-08-31T08:26:00.079Z,19.83
2018-08-31T08:28:29.634Z,20.73
2018-08-31T08:30:58.343Z,17.83
2018-08-31T08:33:27.187Z,15.13
2018-08-31T08:35:56.394Z,16.80
2018-08-31T08:38:25.225Z,19.27
2018-08-31T08:40:54.195Z,16.20
2018-08-31T08:43:23.104Z,12.57
2018-08-31T08:45:51.970Z,14.03
2018-08-31T08:48:20.906Z,11.63
2018-08-31T08:50:49.770Z,19.70
2018-08-31T08:53:18.620Z,14.80
2018-08-31T08:55:47.458Z,18.90
2018-08-31T08:58:16.417Z,15.33
2018-08-31T09:00:45.146Z,11.80
2018-08-31T09:03:14.580Z,16.87
2018-08-31T09:05:44.039Z,13.57
2018-08-31T09:08:12.779Z,18.23
2018-08-31T09:10:42.247Z,12.40
2018-08-31T09:13:11.114Z,11.80
2018-08-31T09:15:39.925Z,15.40
2018-08-31T09:18:09.638Z,17.53
2018-08-31T09:20:39.038Z,14.07
2018-08-31T09:23:07.985Z,16.17
2018-08-31T09:25:37.487Z,16.63
2018-08-31T09:28:07.055Z,15.33
2018-08-31T09:30:42.871Z,16.30
2018-08-31T09:33:11.964Z,16.87
2018-08-31T09:35:40.736Z,17.43
2018-08-31T09:38:10.441Z,18.27
2018-08-31T09:40:39.895Z,19.30
2018-08-31T09:43:09.339Z,20.20
2018-08-31T09:45:38.215Z,15.60
2018-08-31T09:48:07.269Z,17.13
2018-08-31T09:50:36.427Z,17.90
2018-08-31T09:53:05.447Z,17.67
2018-08-31T09:55:34.244Z,17.37
2018-08-31T09:58:03.715Z,20.40
2018-08-31T10:00:37.999Z,14.43
2018-08-31T10:03:11.987Z,18.10
2018-08-31T10:05:40.851Z,18.53
2018-08-31T10:08:10.277Z,20.27
2018-08-31T10:10:39.085Z,18.07
2018-08-31T10:13:07.939Z,18.40
2018-08-31T10:15:37.098Z,24.67
2018-08-31T10:18:05.967Z,21.50
2018-08-31T10:20:35.432Z,18.00
2018-08-31T10:23:04.491Z,20.53
2018-08-31T10:25:33.719Z,20.13
2018-08-31T10:28:02.552Z,23.30
2018-08-31T10:30:31.447Z,21.80
2018-08-31T10:33:01.545Z,22.90
2018-08-31T10:35:30.609Z,20.53
2018-08-31T10:38:00.056Z,24.73
2018-08-31T10:40:28.988Z,25.37
2018-08-31T10:42:58.781Z,24.77
2018-08-31T10:45:27.799Z,22.80
2018-08-31T10:47:56.768Z,28.43
2018-08-31T10:50:25.909Z,29.67
2018-08-31T10:52:54.709Z,25.30
2018-08-31T10:55:24.416Z,28.07
2018-08-31T10:57:53.333Z,30.17
2018-08-31T11:00:22.277Z,31.43
2018-08-31T11:02:51.830Z,26.87
2018-08-31T11:05:20.908Z,28.10
2018-08-31T11:07:49.902Z,28.70
2018-08-31T11:10:19.461Z,29.40
2018-08-31T11:12:48.431Z,31.70
2018-08-31T11:15:17.314Z,28.73
2018-08-31T11:17:46.138Z,31.60
2018-08-31T11:20:15.677Z,31.23
2018-08-31T11:22:44.563Z,27.33
2018-08-31T11:25:14.023Z,34.77
2018-08-31T11:27:43.069Z,27.23
2018-08-31T11:30:12.032Z,27.00
2018-08-31T11:32:41.127Z,31.53
2018-08-31T11:35:10.130Z,32.07
2018-08-31T11:37:39.738Z,31.40
2018-08-31T11:40:08.692Z,33.00
2018-08-31T11:42:37.579Z,30.37
2018-08-31T11:45:06.535Z,33.53
2018-08-31T11:47:35.387Z,35.33
2018-08-31T11:50:04.517Z,35.00
2018-08-31T11:52:33.402Z,40.33
2018-08-31T11:55:02.407Z,37.43
2018-08-31T11:57:31.909Z,37.47
2018-08-31T12:00:00.815Z,36.33
2018-08-31T12:02:29.825Z,35.80
2018-08-31T12:04:58.942Z,36.10
2018-08-31T12:07:28.508Z,39.00
2018-08-31T12:09:57.524Z,36.00
2018-08-31T12:12:26.509Z,41.50
2018-08-31T12:14:55.364Z,34.73
2018-08-31T12:17:24.252Z,38.87
2018-08-31T12:19:53.258Z,39.40
2018-08-31T12:22:22.896Z,32.30
2018-08-31T12:24:51.795Z,34.63
2018-08-31T12:27:20.766Z,35.30
2018-08-31T12:29:57.283Z,32.37
2018-08-31T12:32:26.143Z,29.53
2018-08-31T12:34:55.090Z,32.23
2018-08-31T12:37:24.014Z,30.37
2018-08-31T12:39:53.048Z,34.60
2018-08-31T12:42:27.452Z,34.30
2018-08-31T12:44:56.374Z,33.10
2018-08-31T12:47:25.215Z,36.30
2018-08-31T12:49:55.067Z,30.27
2018-08-31T12:52:24.223Z,31.80
2018-08-31T12:54:53.066Z,33.17
2018-08-31T12:57:22.179Z,30.97
2018-08-31T12:59:59.123Z,24.43
2018-08-31T13:02:28.905Z,30.00
2018-08-31T13:04:57.893Z,28.60
2018-08-31T13:07:37.135Z,34.00
2018-08-31T13:10:23.670Z,27.17
2018-08-31T13:12:52.876Z,26.03
2018-08-31T13:18:16.330Z,32.60
2018-08-31T13:23:54.296Z,26.33
2018-08-31T13:26:36.057Z,27.70
2018-08-31T13:29:04.981Z,22.33
2018-08-31T13:31:33.952Z,24.00
2018-08-31T13:40:07.471Z,28.60
2018-08-31T13:42:36.620Z,28.53
2018-08-31T13:45:06.607Z,27.43
2018-08-31T13:47:35.758Z,28.47
2018-08-31T13:50:08.719Z,27.70
2018-08-31T13:52:37.690Z,27.87
2018-08-31T13:55:06.588Z,27.23
2018-08-31T13:57:35.614Z,27.43
2018-08-31T14:00:04.829Z,27.50
2018-08-31T14:02:34.034Z,28.93
2018-08-31T14:05:03.666Z,28.13
2018-08-31T14:07:33.688Z,31.33
2018-08-31T14:10:21.014Z,32.30
2018-08-31T14:12:50.468Z,34.90
2018-08-31T14:15:37.955Z,38.40
2018-08-31T14:18:06.869Z,33.10
2018-08-31T14:20:36.127Z,37.20
2018-08-31T14:23:05.500Z,36.80
2018-08-31T14:25:34.305Z,39.47
2018-08-31T14:28:03.301Z,44.53
2018-08-31T14:30:32.309Z,40.03
2018-08-31T14:33:01.173Z,46.73
2018-08-31T14:35:30.090Z,46.70
2018-08-31T14:37:59.105Z,41.77
2018-08-31T14:40:28.060Z,40.60
2018-08-31T14:43:09.193Z,39.03
2018-08-31T14:45:41.725Z,37.73
2018-08-31T14:48:10.735Z,41.70
2018-08-31T14:50:39.660Z,40.70
2018-08-31T14:53:20.642Z,38.27
2018-08-31T14:55:50.496Z,40.97
2018-08-31T14:58:19.461Z,39.07
2018-08-31T15:00:48.463Z,43.10
2018-08-31T15:03:18.430Z,50.83
2018-08-31T15:05:51.584Z,45.07
2018-08-31T15:08:23.610Z,46.70
2018-08-31T15:10:52.531Z,40.63
2018-08-31T15:13:21.452Z,40.63
2018-08-31T15:15:55.310Z,42.50
2018-08-31T15:18:29.893Z,54.27
2018-08-31T15:20:58.722Z,47.07
2018-08-31T15:23:27.948Z,47.50
2018-08-31T15:25:57.512Z,46.53
2018-08-31T15:28:26.384Z,51.10
2018-08-31T15:34:02.103Z,42.00
2018-08-31T15:36:31.126Z,46.67
2018-08-31T15:38:59.932Z,48.43
2018-08-31T15:41:28.910Z,45.40
2018-08-31T15:43:57.750Z,49.60
2018-08-31T15:46:26.633Z,50.90
2018-08-31T15:48:55.489Z,43.17
2018-08-31T15:51:24.475Z,47.83
2018-08-31T15:53:53.359Z,48.53
2018-08-31T15:56:25.512Z,48.57
2018-08-31T15:58:55.082Z,44.30
2018-08-31T16:01:24.644Z,49.77
2018-08-31T16:03:53.515Z,54.13
2018-08-31T16:06:22.349Z,49.50
2018-08-31T16:08:51.329Z,54.93
2018-08-31T16:11:20.239Z,49.43
2018-08-31T16:13:49.124Z,45.07
2018-08-31T16:16:18.097Z,48.40
2018-08-31T16:18:47.140Z,51.80
2018-08-31T16:21:16.584Z,46.07
2018-08-31T16:23:45.493Z,46.10
2018-08-31T16:26:14.436Z,47.90
2018-08-31T16:28:44.412Z,49.30
2018-08-31T16:31:13.400Z,59.10
2018-08-31T16:33:42.998Z,48.30
2018-08-31T16:36:12.760Z,52.50
2018-08-31T16:39:00.403Z,58.30
2018-08-31T16:41:29.212Z,53.90
2018-08-31T16:43:58.107Z,58.13
2018-08-31T16:46:27.070Z,66.03
2018-08-31T16:48:55.906Z,62.10
2018-08-31T16:51:25.131Z,62.63
2018-08-31T16:53:54.342Z,71.60
2018-08-31T16:56:27.218Z,57.03
2018-08-31T16:58:56.718Z,65.00
2018-08-31T17:01:45.083Z,69.70
2018-08-31T17:04:16.051Z,67.07
2018-08-31T17:06:45.892Z,97.77
2018-08-31T17:09:28.798Z,57.37
2018-08-31T17:11:57.759Z,66.33
2018-08-31T17:14:26.701Z,52.77
2018-08-31T17:16:55.663Z,52.33
2018-08-31T17:19:24.581Z,43.00
2018-08-31T17:21:57.789Z,40.47
2018-08-31T17:24:26.724Z,36.60
2018-08-31T17:27:00.748Z,28.73
2018-08-31T17:29:36.503Z,30.70
2018-08-31T17:32:10.408Z,31.27
2018-08-31T17:34:44.677Z,29.00
2018-08-31T17:37:18.631Z,25.43
2018-08-31T17:39:47.683Z,43.30
2018-08-31T17:42:16.585Z,36.83
2018-08-31T17:44:45.572Z,30.27
2018-08-31T17:47:14.530Z,33.93
2018-08-31T17:49:43.590Z,29.43
2018-08-31T17:52:12.502Z,27.70
2018-08-31T17:54:41.971Z,22.17
2018-08-31T17:57:10.951Z,29.60
2018-08-31T17:59:39.957Z,26.97
2018-08-31T18:02:15.047Z,29.93
2018-08-31T18:04:44.073Z,33.37
2018-08-31T18:07:18.948Z,37.10
2018-08-31T18:09:48.065Z,39.70
2018-08-31T18:12:17.703Z,39.20
2018-08-31T18:14:46.843Z,49.80
2018-08-31T18:17:15.869Z,55.37
2018-08-31T18:19:50.110Z,47.27
2018-08-31T18:22:19.155Z,40.93
2018-08-31T18:24:48.186Z,41.10
2018-08-31T18:27:17.082Z,38.30
2018-08-31T18:29:46.082Z,49.87
2018-08-31T18:32:14.980Z,47.93
2018-08-31T18:34:43.861Z,49.90
2018-08-31T18:37:13.159Z,45.83
2018-08-31T18:39:43.094Z,54.20
2018-08-31T18:42:12.249Z,41.93
2018-08-31T18:44:41.710Z,44.20
2018-08-31T18:47:10.651Z,48.87
2018-08-31T18:49:39.567Z,42.87
2018-08-31T18:52:26.726Z,49.50
2018-08-31T18:54:56.650Z,52.10
2018-08-31T18:57:26.206Z,63.10
2018-08-31T18:59:56.755Z,46.57
2018-08-31T19:02:25.585Z,69.33
2018-08-31T19:04:54.578Z,47.70
2018-08-31T19:07:24.292Z,52.97
2018-08-31T19:09:53.197Z,53.40
2018-08-31T19:12:22.631Z,97.60
2018-08-31T19:14:51.597Z,51.43
2018-08-31T19:17:20.530Z,64.97
2018-08-31T19:19:59.506Z,75.83
2018-08-31T19:22:29.010Z,61.57
2018-08-31T19:24:58.081Z,59.83
2018-08-31T19:27:27.112Z,66.73
2018-08-31T19:29:56.065Z,68.27
2018-08-31T19:32:25.591Z,80.23
2018-08-31T19:34:54.488Z,82.30
2018-08-31T19:37:23.400Z,61.20
2018-08-31T19:39:52.389Z,59.13
2018-08-31T19:42:21.251Z,83.30
2018-08-31T19:44:50.208Z,71.90
2018-08-31T19:47:19.175Z,95.17
2018-08-31T19:49:48.599Z,98.50
2018-08-31T19:52:17.815Z,89.40
2018-08-31T19:54:46.816Z,75.83
2018-08-31T19:57:19.674Z,62.57
2018-08-31T19:59:48.682Z,61.10
2018-08-31T20:02:17.587Z,76.30
2018-08-31T20:04:46.752Z,79.17
2018-08-31T20:07:15.764Z,62.77
2018-08-31T20:09:45.829Z,68.13
2018-08-31T20:12:15.488Z,56.47
2018-08-31T20:14:45.189Z,66.47
2018-08-31T20:17:14.019Z,73.27
2018-08-31T20:19:43.085Z,86.93
2018-08-31T20:22:13.060Z,76.20
2018-08-31T20:24:42.021Z,97.30
2018-08-31T20:27:11.493Z,102.07
2018-08-31T20:29:40.408Z,99.90
2018-08-31T20:32:09.275Z,60.33
2018-08-31T20:34:38.223Z,80.60
2018-08-31T20:37:07.894Z,115.07
2018-08-31T20:39:36.773Z,72.67
2018-08-31T20:42:05.658Z,84.30
2018-08-31T20:44:34.565Z,145.47
2018-08-31T20:47:03.759Z,88.40
2018-08-31T20:49:32.681Z,67.50
2018-08-31T20:52:02.295Z,81.83
2018-08-31T20:54:31.106Z,84.17
2018-08-31T20:57:00.047Z,114.33
2018-08-31T20:59:28.975Z,53.17
2018-08-31T21:01:57.842Z,147.10
2018-08-31T21:04:26.694Z,72.73
2018-08-31T21:06:55.591Z,60.03
2018-08-31T21:09:24.524Z,71.87
2018-08-31T21:11:53.338Z,83.87
2018-08-31T21:14:22.240Z,69.43
2018-08-31T21:16:51.050Z,179.93
2018-08-31T21:19:19.917Z,137.90
2018-08-31T21:21:48.767Z,81.27
2018-08-31T21:24:17.641Z,91.80
2018-08-31T21:26:46.554Z,90.03
2018-08-31T21:29:15.493Z,59.07
2018-08-31T21:31:44.280Z,62.70
2018-08-31T21:34:13.182Z,56.93
2018-08-31T21:36:42.271Z,75.87
2018-08-31T21:39:11.295Z,117.53
2018-08-31T21:41:40.132Z,99.57
2018-08-31T21:44:08.993Z,106.53
2018-08-31T21:46:37.863Z,120.20
2018-08-31T21:49:06.736Z,130.60
2018-08-31T21:51:35.591Z,101.17
2018-08-31T21:54:04.484Z,79.87
2018-08-31T21:56:33.450Z,80.47
2018-08-31T21:59:02.473Z,88.10
2018-08-31T22:01:36.483Z,107.60
2018-08-31T22:04:05.495Z,133.13
2018-08-31T22:06:34.467Z,96.40
2018-08-31T22:09:03.551Z,104.73
2018-08-31T22:11:32.610Z,98.20
2018-08-31T22:16:52.656Z,103.67
2018-08-31T22:19:22.134Z,91.77
2018-08-31T22:21:51.996Z,109.63
2018-08-31T22:24:20.819Z,95.53
2018-08-31T22:26:49.629Z,120.57
2018-08-31T22:29:18.429Z,114.57
2018-08-31T22:31:48.344Z,127.03
2018-08-31T22:34:17.278Z,116.07
2018-08-31T22:36:46.090Z,119.20
2018-08-31T22:39:14.986Z,123.97
2018-08-31T22:41:43.990Z,153.53
2018-08-31T22:44:12.908Z,130.00
2018-08-31T22:46:41.654Z,161.90
2018-08-31T22:49:10.566Z,167.90
2018-08-31T22:51:39.384Z,181.80
2018-08-31T22:54:08.372Z,162.90
2018-08-31T22:56:37.263Z,151.60
2018-08-31T22:59:06.151Z,129.47
2018-08-31T23:01:35.098Z,178.03
2018-08-31T23:04:04.047Z,220.70
2018-08-31T23:06:32.902Z,169.70
2018-08-31T23:09:01.863Z,151.80
2018-08-31T23:11:30.722Z,192.93
2018-08-31T23:13:59.813Z,191.13
2018-08-31T23:16:28.679Z,161.47
2018-08-31T23:18:58.074Z,186.63
2018-08-31T23:21:26.992Z,181.93
2018-08-31T23:23:56.041Z,142.03
2018-08-31T23:26:25.030Z,140.03
2018-08-31T23:28:54.563Z,155.10
2018-08-31T23:31:23.453Z,146.43
2018-08-31T23:33:52.354Z,118.70
2018-08-31T23:36:23.098Z,107.97
2018-08-31T23:38:52.925Z,122.47
2018-08-31T23:41:21.792Z,265.40
2018-08-31T23:43:50.821Z,85.67
2018-08-31T23:46:19.534Z,150.30
2018-08-31T23:48:48.427Z,102.53
2018-08-31T23:51:17.451Z,124.07
2018-08-31T23:53:46.909Z,106.27
2018-08-31T23:56:15.650Z,105.00
2018-08-31T23:58:44.625Z,110.37
